createdAt,value
2023-04-10T00:00:00.210Z,1008.29
2023-04-10T00:05:00.134Z,1008.2
2023-04-10T00:10:00.134Z,1008.32
2023-04-10T00:15:00.207Z,1008.16
2023-04-10T00:20:00.135Z,1008.24
2023-04-10T00:25:00.126Z,1008.27
2023-04-10T00:30:00.107Z,1008.16
2023-04-10T00:35:00.127Z,1008.25
2023-04-10T00:40:00.116Z,1008.18
2023-04-10T00:45:00.135Z,1008.19
2023-04-10T00:50:00.140Z,1008.17
2023-04-10T00:55:00.152Z,1008.06
2023-04-10T01:00:00.162Z,1008.05
2023-04-10T01:05:00.142Z,1008.06
2023-04-10T01:10:00.178Z,1007.98
2023-04-10T01:15:00.197Z,1007.91
2023-04-10T01:20:00.122Z,1007.91
2023-04-10T01:25:00.143Z,1007.94
2023-04-10T01:30:00.161Z,1007.94
2023-04-10T01:35:00.136Z,1007.78
2023-04-10T01:40:00.169Z,1007.82
2023-04-10T01:45:00.128Z,1007.82
2023-04-10T01:50:00.138Z,1007.83
2023-04-10T01:55:00.162Z,1007.76
2023-04-10T02:00:00.284Z,1007.71
2023-04-10T02:05:00.276Z,1007.85
2023-04-10T02:10:00.104Z,1007.77
2023-04-10T02:15:00.161Z,1007.78
2023-04-10T02:20:00.136Z,1007.68
2023-04-10T02:25:00.125Z,1007.77
2023-04-10T02:30:00.145Z,1007.74
2023-04-10T02:35:00.160Z,1007.77
2023-04-10T02:40:00.157Z,1007.77
2023-04-10T02:45:00.115Z,1007.72
2023-04-10T02:50:00.164Z,1007.81
2023-04-10T02:55:00.152Z,1007.79
2023-04-10T03:00:00.173Z,1007.88
2023-04-10T03:05:00.239Z,1008.01
2023-04-10T03:10:00.156Z,1008.01
2023-04-10T03:15:00.165Z,1008.07
2023-04-10T03:20:00.134Z,1008.03
2023-04-10T03:25:00.142Z,1008.06
2023-04-10T03:30:00.130Z,1007.45
2023-04-10T03:35:00.151Z,1007.39
2023-04-10T03:40:00.131Z,1007.43
2023-04-10T03:45:00.174Z,1007.32
2023-04-10T03:50:00.154Z,1007.4
2023-04-10T03:55:00.141Z,1007.34
2023-04-10T04:00:00.169Z,1007.26
2023-04-10T04:05:00.112Z,1007.43
2023-04-10T04:10:00.195Z,1007.33
2023-04-10T04:15:00.155Z,1007.3
2023-04-10T04:20:00.115Z,1007.36
2023-04-10T04:25:00.155Z,1007.32
2023-04-10T04:30:00.170Z,1007.31
2023-04-10T04:35:00.143Z,1007.33
2023-04-10T04:40:00.139Z,1007.38
2023-04-10T04:45:00.132Z,1007.46
2023-04-10T04:50:00.242Z,1007.49
2023-04-10T04:55:00.231Z,1007.41
2023-04-10T05:00:00.168Z,1007.49
2023-04-10T05:05:00.121Z,1007.48
2023-04-10T05:10:00.182Z,1007.43
2023-04-10T05:15:00.154Z,1007.37
2023-04-10T05:20:00.118Z,1007.42
2023-04-10T05:25:00.138Z,1007.43
2023-04-10T05:30:00.132Z,1007.42
2023-04-10T05:35:00.134Z,1007.43
2023-04-10T05:40:00.120Z,1007.51
2023-04-10T05:45:00.157Z,1007.52
2023-04-10T05:50:00.136Z,1007.47
2023-04-10T05:55:00.195Z,1007.5
2023-04-10T06:00:00.145Z,1007.51
2023-04-10T06:05:00.155Z,1007.5
2023-04-10T06:10:00.171Z,1007.54
2023-04-10T06:15:00.108Z,1007.58
2023-04-10T06:20:00.096Z,1007.57
2023-04-10T06:25:00.142Z,1007.55
2023-04-10T06:30:00.169Z,1007.54
2023-04-10T06:35:00.138Z,1007.51
2023-04-10T06:40:00.145Z,1007.51
2023-04-10T06:45:00.121Z,1007.49
2023-04-10T06:50:00.177Z,1007.4
2023-04-10T06:55:00.161Z,1007.28
2023-04-10T07:00:00.196Z,1007.36
2023-04-10T07:05:00.116Z,1007.32
2023-04-10T07:10:00.149Z,1007.29
2023-04-10T07:15:00.175Z,1007.3
2023-04-10T07:20:00.212Z,1007.27
2023-04-10T07:25:00.137Z,1007.3
2023-04-10T07:30:00.151Z,1007.27
2023-04-10T07:35:00.161Z,1007.22
2023-04-10T07:40:00.105Z,1007.33
2023-04-10T07:45:00.147Z,1007.27
2023-04-10T07:50:00.133Z,1007.26
2023-04-10T07:55:00.174Z,1007.29
2023-04-10T08:00:00.148Z,1007.27
2023-04-10T08:05:00.179Z,1007.17
2023-04-10T08:10:00.128Z,1007.17
2023-04-10T08:15:00.146Z,1007.18
2023-04-10T08:20:00.151Z,1007.13
2023-04-10T08:25:00.153Z,1007.19
2023-04-10T08:30:00.124Z,1007.09
2023-04-10T08:35:00.157Z,1007.1
2023-04-10T08:40:00.195Z,1006.97
2023-04-10T08:45:00.121Z,1006.88
2023-04-10T08:50:00.113Z,1006.92
2023-04-10T08:55:00.211Z,1006.91
2023-04-10T09:00:04.011Z,1006.85
2023-04-10T09:05:00.112Z,1006.81
2023-04-10T09:10:00.138Z,1006.7
2023-04-10T09:15:00.164Z,1006.66
2023-04-10T09:20:00.145Z,1006.63
2023-04-10T09:25:00.166Z,1006.51
2023-04-10T09:30:00.134Z,1006.55
2023-04-10T09:35:00.140Z,1006.47
2023-04-10T09:40:00.142Z,1006.54
2023-04-10T09:45:00.128Z,1006.37
2023-04-10T09:50:00.135Z,1006.29
2023-04-10T09:55:00.152Z,1006.17
2023-04-10T10:00:00.201Z,1006.02
2023-04-10T10:05:00.274Z,1005.97
2023-04-10T10:10:00.165Z,1005.98
2023-04-10T11:50:00.191Z,1005.94
2023-04-10T11:55:00.183Z,1004.91
2023-04-10T12:00:00.161Z,1004.93
2023-04-10T12:05:00.184Z,1004.45
2023-04-10T12:10:00.167Z,1004.27
2023-04-10T12:15:00.120Z,1004.11
2023-04-10T12:20:00.168Z,1003.97
2023-04-10T12:25:00.129Z,1004
2023-04-10T12:30:00.147Z,1003.85
2023-04-10T12:35:00.148Z,1004.02
2023-04-10T12:40:00.148Z,1003.64
2023-04-10T12:45:00.136Z,1003.64
2023-04-10T12:50:00.140Z,1003.43
2023-04-10T12:55:00.097Z,1003.4
2023-04-10T13:00:00.159Z,1003.23
2023-04-10T13:05:00.122Z,1003.03
2023-04-10T13:10:00.192Z,1002.95
2023-04-10T13:15:00.131Z,1002.84
2023-04-10T13:20:00.107Z,1002.71
2023-04-10T13:25:00.128Z,1002.54
2023-04-10T13:30:00.270Z,1002.57
2023-04-10T13:35:00.139Z,1002.42
2023-04-10T13:40:00.109Z,1002.26
2023-04-10T13:45:00.149Z,1002.17
2023-04-10T13:50:00.168Z,1002.11
2023-04-10T13:55:00.140Z,1001.88
2023-04-10T14:00:00.161Z,1001.8
2023-04-10T14:05:00.134Z,1001.8
2023-04-10T14:10:00.154Z,1001.69
2023-04-10T14:15:00.183Z,1001.7
2023-04-10T14:20:00.138Z,1001.63
2023-04-10T14:25:09.720Z,1001.55
2023-04-10T14:30:00.188Z,1001.55
2023-04-10T14:35:00.120Z,1001.42
2023-04-10T14:40:00.162Z,1001.42
2023-04-10T14:45:00.110Z,1001.3
2023-04-10T14:50:00.155Z,1001.26
2023-04-10T14:55:00.130Z,1001
2023-04-10T15:00:00.183Z,1001.09
2023-04-10T15:05:00.213Z,1001
2023-04-10T15:10:00.142Z,1000.87
2023-04-10T15:15:00.157Z,1000.91
2023-04-10T15:20:00.126Z,1000.73
2023-04-10T15:25:00.118Z,1000.63
2023-04-10T15:30:00.201Z,1000.64
2023-04-10T15:35:00.130Z,1000.57
2023-04-10T15:40:00.147Z,1000.55
2023-04-10T15:45:00.155Z,1000.39
2023-04-10T15:50:00.184Z,1000.41
2023-04-10T15:55:00.109Z,1000.35
2023-04-10T16:00:00.165Z,1000.3
2023-04-10T16:05:00.122Z,1000.23
2023-04-10T16:10:00.155Z,1000.13
2023-04-10T16:15:00.172Z,1000.22
2023-04-10T16:20:00.152Z,1000.09
2023-04-10T16:25:00.157Z,999.98
2023-04-10T16:30:00.184Z,999.84
2023-04-10T16:35:00.136Z,999.78
2023-04-10T16:40:00.126Z,999.72
2023-04-10T16:45:00.136Z,999.63
2023-04-10T16:50:00.266Z,999.51
2023-04-10T16:55:00.105Z,999.49
2023-04-10T17:00:00.219Z,999.43
2023-04-10T17:05:00.129Z,999.34
2023-04-10T17:10:00.243Z,999.33
2023-04-10T17:15:00.160Z,999.25
2023-04-10T17:20:00.113Z,999.24
2023-04-10T17:25:00.118Z,999.24
2023-04-10T17:30:00.197Z,999.1
2023-04-10T17:35:00.128Z,999.06
2023-04-10T17:40:00.147Z,998.96
2023-04-10T17:45:00.143Z,998.93
2023-04-10T17:50:00.158Z,998.92
2023-04-10T17:55:00.122Z,998.88
2023-04-10T18:00:00.169Z,998.77
2023-04-10T18:05:00.113Z,998.75
2023-04-10T18:10:00.173Z,998.8
2023-04-10T18:15:00.127Z,998.68
2023-04-10T18:20:00.118Z,998.75
2023-04-10T18:25:00.151Z,998.72
2023-04-10T18:30:00.149Z,998.69
2023-04-10T18:35:00.126Z,998.63
2023-04-10T18:40:06.528Z,998.64
2023-04-10T18:45:00.151Z,998.7
2023-04-10T18:50:00.148Z,998.68
2023-04-10T18:55:00.111Z,998.73
2023-04-10T19:00:00.133Z,998.56
2023-04-10T19:05:00.140Z,998.48
2023-04-10T19:10:00.175Z,998.49
2023-04-10T19:15:00.143Z,998.48
2023-04-10T19:20:00.137Z,998.8
2023-04-10T19:25:00.121Z,998.02
2023-04-10T19:30:00.206Z,998.07
2023-04-10T19:35:00.130Z,998.07
2023-04-10T19:40:00.119Z,997.88
2023-04-10T19:45:00.118Z,997.84
2023-04-10T19:50:00.148Z,997.74
2023-04-10T19:55:00.136Z,997.73
2023-04-10T20:00:00.137Z,997.7
2023-04-10T20:05:00.212Z,997.72
2023-04-10T20:10:00.135Z,997.66
2023-04-10T20:15:00.153Z,997.56
2023-04-10T20:20:00.112Z,997.52
2023-04-10T20:25:00.125Z,997.82
2023-04-10T20:30:00.172Z,997.83
2023-04-10T20:35:00.125Z,997.78
2023-04-10T20:40:00.141Z,997.76
2023-04-10T20:45:00.127Z,997.84
2023-04-10T20:50:00.118Z,997.75
2023-04-10T20:55:00.136Z,997.7
2023-04-10T21:00:00.155Z,997.77
2023-04-10T21:05:00.107Z,997.57
2023-04-10T21:10:00.153Z,997.43
2023-04-10T21:15:00.118Z,997.42
2023-04-10T21:20:00.161Z,997.42
2023-04-10T21:25:00.144Z,997.3
2023-04-10T21:30:00.154Z,997.2
2023-04-10T21:35:00.146Z,997.16
2023-04-10T21:40:00.115Z,996.98
2023-04-10T21:45:00.148Z,997
2023-04-10T21:50:00.123Z,996.87
2023-04-10T21:55:00.097Z,996.71
2023-04-10T22:00:00.205Z,996.67
2023-04-10T22:05:00.133Z,996.62
2023-04-10T22:10:00.170Z,996.72
2023-04-10T22:15:00.139Z,996.66
2023-04-10T22:20:00.158Z,996.72
2023-04-10T22:25:00.151Z,996.53
2023-04-10T22:30:03.585Z,996.39
2023-04-10T22:35:00.206Z,996.17
2023-04-10T22:40:00.130Z,996.05
2023-04-10T22:45:00.158Z,995.86
2023-04-10T22:50:00.114Z,995.86
2023-04-10T22:55:00.138Z,995.79
2023-04-10T23:00:00.706Z,995.81
2023-04-10T23:05:00.146Z,995.68
2023-04-10T23:10:00.153Z,995.53
2023-04-10T23:15:00.127Z,995.42
2023-04-10T23:20:00.174Z,995.23
2023-04-10T23:25:00.138Z,995.21
2023-04-10T23:30:00.168Z,995.09
2023-04-10T23:35:00.123Z,994.96
2023-04-10T23:40:00.127Z,994.77
2023-04-10T23:45:00.131Z,994.64
2023-04-10T23:50:00.160Z,994.38
2023-04-10T23:55:00.119Z,994.23
